Share

Tabriz, Iran

Tabriz International (OITT) Elev 4459 ft | 38.13 °N, 46.24 °E | Change Station

Current weather conditions updated 6 minutes ago

Scattered Clouds
Scattered Clouds
73 °F
Feels Like 73 °F
N
12
Wind Variable Wind from West
Sunrise 6:44 AM
Sunset 8:04 PM
Moon Waning Gibbous

Tomorrow is forecast to be nearly the same temperature as today.

Pressure 30.09 in
Visibility 6.2 miles
Clouds Few 3500 ft
Scattered Clouds 18000 ft
Dew Point 45 °F
Humidity 36%
Rainfall 0.00 in
Snow Depth Not available.
UV 1 out of 16
Pollen Not available.
Air Quality Not available.
Flu Activity Not available.
METAR OITT 191400Z 28010KT 9999 FEW035TCU SCT180 23/07 Q1019 A3010

More Conditions Fewer Conditions

Pressure 30.09 in
Visibility 6.2 miles
Clouds Few 3500 ft
Scattered Clouds 18000 ft
Dew Point 45 °F
Humidity 36%
Rainfall 0.00 in
Snow Depth Not available.
UV 1 out of 16
Pollen Not available.
Air Quality Not available.
Flu Activity Not available.
METAR OITT 191400Z 28010KT 9999 FEW035TCU SCT180 23/07 Q1019 A3010

More Conditions Fewer Conditions

10-Day Weather Forecast

Almanac

Astronomy

Apr. 19, 2014 Rise Set
Actual Time 6:44 AM IRDT 8:04 PM IRDT
Civil Twilight 6:16 AM IRDT 8:31 PM IRDT
Nautical Twilight 5:44 AM IRDT 9:04 PM IRDT
Astronomical Twilight 5:09 AM IRDT 9:39 PM IRDT
Moon 12:22 AM IRDT (4/20) 9:42 AM IRDT
Length of Visible Light 14h 14m
Length of Day
13h 20m
Tomorrow will be 2m 17s longer.
Waning Gibbous, 79% of the Moon is Illuminated
Today
Waning Gibbous
Apr 22
Last Quarter
Apr 29
New
May 6
First Quarter
May 14
Full

Yesterday's Extremes

Country Highs Country Lows

Community

  • A Glorious Morning
    A Glorious Morning
  • Bleeding Hearts
    Bleeding Hearts
  • Sunset Silhouettes
    Sunset Silhouettes
  • FL sunset Perico Isle
    FL sunset Perico Isle
  • Cloudy spring view
    Cloudy spring view

WunderPhotos

Upload Photos

1,702,733 photos uploaded!

Nearby

Snow Depth

Not available.

Coastal Water Temperatures

Place Temperature
No Stations Reporting

Earthquake Activity

City Distance Mag. Time & Date
No recent earthquake activity has been reported nearby.
Minimum magnitude displayed is 2.5.

Nearby Weather Stations

There are no personal weather stations in this area.

What do you think?

We're not finished. Please let us know what you like, what you don't like, and what you are still missing.